createdAt,value
2018-07-22T00:00:58.489Z,17.10
2018-07-22T00:03:26.617Z,17.20
2018-07-22T00:05:54.747Z,17.30
2018-07-22T00:08:22.921Z,17.50
2018-07-22T00:10:51.065Z,17.50
2018-07-22T00:13:19.214Z,17.50
2018-07-22T00:15:47.344Z,17.50
2018-07-22T00:18:15.493Z,17.50
2018-07-22T00:20:43.657Z,17.50
2018-07-22T00:23:11.817Z,17.50
2018-07-22T00:25:39.958Z,17.50
2018-07-22T00:28:08.097Z,17.50
2018-07-22T00:30:36.241Z,17.50
2018-07-22T00:33:04.423Z,17.50
2018-07-22T00:35:32.562Z,17.40
2018-07-22T00:38:00.702Z,17.30
2018-07-22T00:40:28.849Z,17.20
2018-07-22T00:42:56.973Z,17.10
2018-07-22T00:45:25.104Z,17.10
2018-07-22T00:47:53.250Z,17.00
2018-07-22T00:50:21.373Z,17.00
2018-07-22T00:52:49.505Z,16.90
2018-07-22T00:55:17.641Z,16.80
2018-07-22T00:57:45.764Z,16.70
2018-07-22T01:00:13.948Z,16.60
2018-07-22T01:02:42.069Z,16.60
2018-07-22T01:05:10.226Z,16.60
2018-07-22T01:07:38.356Z,16.60
2018-07-22T01:10:06.858Z,16.60
2018-07-22T01:12:34.981Z,16.60
2018-07-22T01:15:03.145Z,16.60
2018-07-22T01:17:31.265Z,16.60
2018-07-22T01:19:59.396Z,16.60
2018-07-22T01:22:27.496Z,16.60
2018-07-22T01:24:55.617Z,16.60
2018-07-22T01:27:23.730Z,16.70
2018-07-22T01:29:51.852Z,16.70
2018-07-22T01:32:19.964Z,16.70
2018-07-22T01:34:48.089Z,16.70
2018-07-22T01:37:16.210Z,16.60
2018-07-22T01:39:44.474Z,16.60
2018-07-22T01:42:12.584Z,16.50
2018-07-22T01:44:40.706Z,16.50
2018-07-22T01:47:08.816Z,16.50
2018-07-22T01:49:36.941Z,16.50
2018-07-22T01:52:05.049Z,16.40
2018-07-22T01:54:33.169Z,16.30
2018-07-22T01:57:01.281Z,16.20
2018-07-22T01:59:29.434Z,16.10
2018-07-22T02:01:57.665Z,16.10
2018-07-22T02:04:25.778Z,16.10
2018-07-22T02:06:53.896Z,16.00
2018-07-22T02:09:22.012Z,15.90
2018-07-22T02:11:50.128Z,15.90
2018-07-22T02:14:18.246Z,15.80
2018-07-22T02:16:46.377Z,15.80
2018-07-22T02:19:14.510Z,15.90
2018-07-22T02:21:42.641Z,15.90
2018-07-22T02:24:10.856Z,15.90
2018-07-22T02:26:38.990Z,15.90
2018-07-22T02:29:07.173Z,15.90
2018-07-22T02:31:35.319Z,15.90
2018-07-22T02:34:03.501Z,15.90
2018-07-22T02:36:31.637Z,15.90
2018-07-22T02:38:59.785Z,15.80
2018-07-22T02:41:27.986Z,15.80
2018-07-22T02:43:56.271Z,15.80
2018-07-22T02:46:24.410Z,15.80
2018-07-22T02:48:52.533Z,15.90
2018-07-22T02:51:20.761Z,15.90
2018-07-22T02:53:48.790Z,15.90
2018-07-22T02:56:16.921Z,15.90
2018-07-22T02:58:45.046Z,15.80
2018-07-22T03:01:13.178Z,15.80
2018-07-22T03:03:41.306Z,15.80
2018-07-22T03:06:09.461Z,15.80
2018-07-22T03:08:37.581Z,15.70
2018-07-22T03:11:05.719Z,15.70
2018-07-22T03:13:33.845Z,15.70
2018-07-22T03:16:01.975Z,15.70
2018-07-22T03:18:30.137Z,15.70
2018-07-22T03:20:58.269Z,15.80
2018-07-22T03:23:26.510Z,15.70
2018-07-22T03:25:54.646Z,15.70
2018-07-22T03:28:22.761Z,15.70
2018-07-22T03:33:18.802Z,15.70
2018-07-22T03:35:46.932Z,15.70
2018-07-22T03:38:15.042Z,15.70
2018-07-22T03:40:43.169Z,15.70
2018-07-22T03:43:11.296Z,15.70
2018-07-22T03:45:39.423Z,15.70
2018-07-22T03:48:07.545Z,15.70
2018-07-22T03:50:35.669Z,15.70
2018-07-22T03:53:03.788Z,15.70
2018-07-22T03:55:31.917Z,15.60
2018-07-22T03:58:00.037Z,15.60
2018-07-22T04:00:28.177Z,15.60
2018-07-22T04:02:56.289Z,15.50
2018-07-22T04:05:24.413Z,15.50
2018-07-22T04:07:52.541Z,15.40
2018-07-22T04:10:20.673Z,15.40
2018-07-22T04:12:48.784Z,15.40
2018-07-22T04:15:16.919Z,15.40
2018-07-22T04:17:45.052Z,15.40
2018-07-22T04:20:13.177Z,15.50
2018-07-22T04:22:41.305Z,15.50
2018-07-22T04:25:09.437Z,15.50
2018-07-22T04:27:37.569Z,15.60
2018-07-22T04:30:06.084Z,15.50
2018-07-22T04:32:34.213Z,15.50
2018-07-22T04:35:02.471Z,15.50
2018-07-22T04:37:30.684Z,15.50
2018-07-22T04:39:58.801Z,15.50
2018-07-22T04:42:26.937Z,15.50
2018-07-22T04:44:55.065Z,15.50
2018-07-22T04:47:23.192Z,15.60
2018-07-22T04:49:51.317Z,15.60
2018-07-22T04:52:19.457Z,15.70
2018-07-22T04:54:47.569Z,15.60
2018-07-22T04:57:15.705Z,15.70
2018-07-22T04:59:43.825Z,15.80
2018-07-22T05:02:11.976Z,15.80
2018-07-22T05:04:40.113Z,15.80
2018-07-22T05:07:08.242Z,15.80
2018-07-22T05:09:36.372Z,15.80
2018-07-22T05:12:04.512Z,15.80
2018-07-22T05:14:32.625Z,15.70
2018-07-22T05:17:00.765Z,15.80
2018-07-22T05:19:28.877Z,15.80
2018-07-22T05:21:57.043Z,15.90
2018-07-22T05:24:25.165Z,15.90
2018-07-22T05:26:53.277Z,15.90
2018-07-22T05:29:21.389Z,16.00
2018-07-22T05:31:49.516Z,16.10
2018-07-22T05:34:17.629Z,16.10
2018-07-22T05:36:45.749Z,16.20
2018-07-22T05:39:13.872Z,16.20
2018-07-22T05:41:42.332Z,16.20
2018-07-22T05:44:10.449Z,16.20
2018-07-22T05:46:38.581Z,16.10
2018-07-22T05:49:06.696Z,16.10
2018-07-22T05:51:34.849Z,16.00
2018-07-22T05:54:03.030Z,16.00
2018-07-22T05:56:31.128Z,16.00
2018-07-22T05:58:59.253Z,15.90
2018-07-22T06:01:27.398Z,15.90
2018-07-22T06:03:56.075Z,16.00
2018-07-22T06:06:24.216Z,16.00
2018-07-22T06:08:52.351Z,16.00
2018-07-22T06:11:20.481Z,16.00
2018-07-22T06:13:48.612Z,16.00
2018-07-22T06:16:16.744Z,16.10
2018-07-22T06:18:44.898Z,16.00
2018-07-22T06:21:13.065Z,16.10
2018-07-22T06:23:41.210Z,16.10
2018-07-22T06:26:09.339Z,16.10
2018-07-22T06:28:37.494Z,16.20
2018-07-22T06:31:05.636Z,16.20
2018-07-22T06:33:33.777Z,16.20
2018-07-22T06:36:01.911Z,16.30
2018-07-22T06:38:30.075Z,16.30
2018-07-22T06:40:58.208Z,16.30
2018-07-22T06:43:26.340Z,16.40
2018-07-22T06:45:54.467Z,16.50
2018-07-22T06:48:22.614Z,16.50
2018-07-22T06:50:50.744Z,16.50
2018-07-22T06:53:18.886Z,16.60
2018-07-22T06:55:47.018Z,16.60
2018-07-22T06:58:15.156Z,16.70
2018-07-22T07:00:43.293Z,16.70
2018-07-22T07:03:11.431Z,16.80
2018-07-22T07:05:39.570Z,16.80
2018-07-22T07:08:07.710Z,16.80
2018-07-22T07:10:35.841Z,16.90
2018-07-22T07:13:03.989Z,16.90
2018-07-22T07:15:32.115Z,16.90
2018-07-22T07:20:28.149Z,17.10
2018-07-22T07:22:56.276Z,17.20
2018-07-22T07:25:24.399Z,17.30
2018-07-22T07:27:52.525Z,17.40
2018-07-22T07:30:20.629Z,17.40
2018-07-22T07:32:48.773Z,17.50
2018-07-22T07:35:16.901Z,17.50
2018-07-22T07:37:45.051Z,17.60
2018-07-22T07:40:13.184Z,17.70
2018-07-22T07:42:41.322Z,17.80
2018-07-22T07:45:09.453Z,17.90
2018-07-22T07:47:37.714Z,17.90
2018-07-22T07:50:05.941Z,18.10
2018-07-22T07:52:34.255Z,18.30
2018-07-22T07:55:02.384Z,18.50
2018-07-22T07:57:30.521Z,18.60
2018-07-22T07:59:58.687Z,18.80
2018-07-22T08:02:26.828Z,19.10
2018-07-22T08:04:55.433Z,19.30
2018-07-22T08:07:23.579Z,19.60
2018-07-22T08:09:51.715Z,19.80
2018-07-22T08:12:19.848Z,19.90
2018-07-22T08:14:47.982Z,20.00
2018-07-22T08:17:16.129Z,19.90
2018-07-22T08:19:44.282Z,19.90
2018-07-22T08:22:12.438Z,19.80
2018-07-22T08:24:40.648Z,19.90
2018-07-22T08:27:08.786Z,20.10
2018-07-22T08:29:36.936Z,20.50
2018-07-22T08:32:05.941Z,20.90
2018-07-22T08:34:34.097Z,20.90
2018-07-22T08:37:02.660Z,20.90
2018-07-22T08:39:31.782Z,20.90
2018-07-22T08:42:00.366Z,21.00
2018-07-22T08:44:28.488Z,21.00
2018-07-22T08:46:56.635Z,20.90
2018-07-22T08:49:24.826Z,20.90
2018-07-22T08:51:57.009Z,21.20
2018-07-22T08:54:25.154Z,21.30
2018-07-22T08:56:53.289Z,21.40
2018-07-22T08:59:21.421Z,21.60
2018-07-22T09:01:49.556Z,21.60
2018-07-22T09:04:17.827Z,21.70
2018-07-22T09:06:46.002Z,21.60
2018-07-22T09:09:14.112Z,21.40
2018-07-22T09:11:42.318Z,21.10
2018-07-22T09:14:10.632Z,21.10
2018-07-22T09:16:38.764Z,21.10
2018-07-22T09:19:06.940Z,21.10
2018-07-22T09:21:35.093Z,21.10
2018-07-22T09:24:03.277Z,21.10
2018-07-22T09:26:31.417Z,21.20
2018-07-22T09:28:59.559Z,21.00
2018-07-22T09:31:27.709Z,20.90
2018-07-22T09:33:55.862Z,21.00
2018-07-22T09:36:24.093Z,21.00
2018-07-22T09:38:52.176Z,21.20
2018-07-22T09:41:20.338Z,21.20
2018-07-22T09:43:48.645Z,21.00
2018-07-22T09:46:17.029Z,21.10
2018-07-22T09:48:45.165Z,21.30
2018-07-22T09:53:41.394Z,21.40
2018-07-22T09:56:09.618Z,21.50
2018-07-22T09:58:37.821Z,21.30
2018-07-22T10:01:05.970Z,21.20
2018-07-22T10:03:34.111Z,21.10
2018-07-22T10:06:02.269Z,21.10
2018-07-22T10:08:30.405Z,21.10
2018-07-22T10:10:58.560Z,21.10
2018-07-22T10:13:26.720Z,21.10
2018-07-22T10:15:54.875Z,21.10
2018-07-22T10:18:23.008Z,21.10
2018-07-22T10:20:51.156Z,21.20
2018-07-22T10:23:19.370Z,21.00
2018-07-22T10:25:47.485Z,21.20
2018-07-22T10:28:15.635Z,21.20
2018-07-22T10:30:43.781Z,21.50
2018-07-22T10:33:11.945Z,21.50
2018-07-22T10:35:40.090Z,21.70
2018-07-22T10:38:08.225Z,22.00
2018-07-22T10:40:36.368Z,22.30
2018-07-22T10:43:04.488Z,22.40
2018-07-22T10:45:32.629Z,22.60
2018-07-22T10:48:00.773Z,22.60
2018-07-22T10:50:28.923Z,23.00
2018-07-22T10:52:58.086Z,23.60
2018-07-22T10:55:26.272Z,24.10
2018-07-22T10:57:54.422Z,24.50
2018-07-22T11:00:22.560Z,25.10
2018-07-22T11:02:50.709Z,25.60
2018-07-22T11:05:18.834Z,25.50
2018-07-22T11:07:46.949Z,25.40
2018-07-22T11:10:15.082Z,25.40
2018-07-22T11:12:43.226Z,25.40
2018-07-22T11:15:11.383Z,25.20
2018-07-22T11:17:39.548Z,25.30
2018-07-22T11:20:07.690Z,25.20
2018-07-22T11:22:35.841Z,25.00
2018-07-22T11:25:04.042Z,24.60
2018-07-22T11:27:32.180Z,24.40
2018-07-22T11:30:00.330Z,24.30
2018-07-22T11:32:28.465Z,24.00
2018-07-22T11:34:56.600Z,23.90
2018-07-22T11:37:24.726Z,24.00
2018-07-22T11:39:53.975Z,23.80
2018-07-22T11:42:22.225Z,23.80
2018-07-22T11:44:50.465Z,23.70
2018-07-22T11:47:18.646Z,23.80
2018-07-22T11:52:14.789Z,24.00
2018-07-22T11:54:44.226Z,24.10
2018-07-22T11:57:18.532Z,24.00
2018-07-22T11:59:50.477Z,24.30
2018-07-22T12:04:46.541Z,25.10
2018-07-22T12:07:14.672Z,25.50
2018-07-22T12:09:42.845Z,25.60
2018-07-22T12:12:11.033Z,25.60
2018-07-22T12:14:39.157Z,25.30
2018-07-22T12:17:07.325Z,24.70
2018-07-22T12:19:35.452Z,24.10
2018-07-22T12:24:31.489Z,23.30
2018-07-22T12:26:59.704Z,22.80
2018-07-22T12:29:27.813Z,22.70
2018-07-22T12:31:55.945Z,22.60
2018-07-22T12:34:24.159Z,22.70
2018-07-22T12:36:52.204Z,22.80
2018-07-22T12:39:20.377Z,22.90
2018-07-22T12:41:48.513Z,22.90
2018-07-22T12:44:16.681Z,22.80
2018-07-22T12:46:44.826Z,22.70
2018-07-22T12:49:12.972Z,22.50
2018-07-22T12:51:41.118Z,22.40
2018-07-22T12:54:09.301Z,22.10
2018-07-22T12:56:37.457Z,21.70
2018-07-22T12:59:05.587Z,21.40
2018-07-22T13:01:33.762Z,21.10
2018-07-22T13:04:01.899Z,20.80
2018-07-22T13:06:30.052Z,20.50
2018-07-22T13:08:58.210Z,20.30
2018-07-22T13:11:26.364Z,20.00
2018-07-22T13:13:54.516Z,19.90
2018-07-22T13:16:22.701Z,19.90
2018-07-22T13:18:50.892Z,19.90
2018-07-22T13:21:20.000Z,19.90
2018-07-22T13:23:48.140Z,19.90
2018-07-22T13:26:16.288Z,20.00
2018-07-22T13:28:44.425Z,20.10
2018-07-22T13:31:12.553Z,20.10
2018-07-22T13:33:40.697Z,20.10
2018-07-22T13:36:08.845Z,20.00
2018-07-22T13:38:36.992Z,19.90
2018-07-22T13:41:05.133Z,19.70
2018-07-22T13:43:33.282Z,19.50
2018-07-22T13:46:01.409Z,19.40
2018-07-22T13:48:29.573Z,19.20
2018-07-22T13:50:57.713Z,19.00
2018-07-22T13:53:25.851Z,18.90
2018-07-22T13:55:53.966Z,18.70
2018-07-22T13:58:22.085Z,18.50
2018-07-22T14:00:50.218Z,18.40
2018-07-22T14:03:18.489Z,18.30
2018-07-22T14:05:46.613Z,18.30
2018-07-22T14:08:14.835Z,18.20
2018-07-22T14:10:42.961Z,18.20
2018-07-22T14:13:11.094Z,18.10
2018-07-22T14:15:39.293Z,18.00
2018-07-22T14:18:07.400Z,17.80
2018-07-22T14:20:35.530Z,17.60
2018-07-22T14:23:03.663Z,17.50
2018-07-22T14:25:31.825Z,17.50
2018-07-22T14:28:00.011Z,17.40
2018-07-22T14:30:28.139Z,17.40
2018-07-22T14:32:56.284Z,17.40
2018-07-22T14:35:24.433Z,17.30
2018-07-22T14:37:52.580Z,17.30
2018-07-22T14:40:21.522Z,17.30
2018-07-22T14:42:49.696Z,17.20
2018-07-22T14:45:17.854Z,17.20
2018-07-22T14:47:46.017Z,17.10
2018-07-22T14:50:14.181Z,17.10
2018-07-22T14:52:42.378Z,17.10
2018-07-22T14:55:14.049Z,17.00
2018-07-22T14:57:42.185Z,17.00
2018-07-22T15:00:10.348Z,17.00
2018-07-22T15:02:38.505Z,17.00
2018-07-22T15:05:06.704Z,17.00
2018-07-22T15:07:34.845Z,17.00
2018-07-22T15:10:03.001Z,17.00
2018-07-22T15:12:31.155Z,17.10
2018-07-22T15:14:59.331Z,17.00
2018-07-22T15:17:27.494Z,17.00
2018-07-22T15:19:55.777Z,17.10
2018-07-22T15:22:24.351Z,17.10
2018-07-22T15:24:52.516Z,17.00
2018-07-22T15:27:21.692Z,17.10
2018-07-22T15:29:49.863Z,17.00
2018-07-22T15:32:18.003Z,17.00
2018-07-22T15:34:46.145Z,16.90
2018-07-22T15:37:14.273Z,16.90
2018-07-22T15:39:42.469Z,16.90
2018-07-22T15:42:10.721Z,16.90
2018-07-22T15:44:38.920Z,16.90
2018-07-22T15:47:07.045Z,16.90
2018-07-22T15:49:35.225Z,17.00
2018-07-22T15:52:03.361Z,16.90
2018-07-22T15:54:31.513Z,16.90
2018-07-22T15:56:59.637Z,16.90
2018-07-22T15:59:27.768Z,16.90
2018-07-22T16:01:55.919Z,17.00
2018-07-22T16:04:24.064Z,17.10
2018-07-22T16:06:52.253Z,17.10
2018-07-22T16:09:20.380Z,17.10
2018-07-22T16:11:48.517Z,17.20
2018-07-22T16:14:16.713Z,17.20
2018-07-22T16:16:44.849Z,17.20
2018-07-22T16:19:13.021Z,17.20
2018-07-22T16:21:41.182Z,17.20
2018-07-22T16:24:09.361Z,17.20
2018-07-22T16:26:37.528Z,17.20
2018-07-22T16:29:05.741Z,17.10
2018-07-22T16:31:33.896Z,17.10
2018-07-22T16:34:02.030Z,17.00
2018-07-22T16:36:30.166Z,16.90
2018-07-22T16:38:58.305Z,16.90
2018-07-22T16:41:26.448Z,16.80
2018-07-22T16:43:54.604Z,16.80
2018-07-22T16:46:22.749Z,16.70
2018-07-22T16:48:50.890Z,16.60
2018-07-22T16:51:19.118Z,16.60
2018-07-22T16:53:47.321Z,16.70
2018-07-22T16:56:15.401Z,16.80
2018-07-22T16:58:43.537Z,17.00
2018-07-22T17:01:11.653Z,17.20
2018-07-22T17:03:39.789Z,17.30
2018-07-22T17:08:35.901Z,17.60
2018-07-22T17:11:04.033Z,17.60
2018-07-22T17:13:32.185Z,17.80
2018-07-22T17:16:00.358Z,17.90
2018-07-22T17:18:28.489Z,18.00
2018-07-22T17:20:56.640Z,18.10
2018-07-22T17:23:24.817Z,18.20
2018-07-22T17:25:52.973Z,18.20
2018-07-22T17:28:21.112Z,18.30
2018-07-22T17:30:49.357Z,18.50
2018-07-22T17:33:17.510Z,18.70
2018-07-22T17:35:45.669Z,18.80
2018-07-22T17:38:13.866Z,18.90
2018-07-22T17:40:42.077Z,18.80
2018-07-22T17:43:10.268Z,18.80
2018-07-22T17:48:31.647Z,18.60
2018-07-22T17:50:59.827Z,18.50
2018-07-22T17:53:27.997Z,18.50
2018-07-22T17:55:56.417Z,18.40
2018-07-22T17:58:25.008Z,18.20
2018-07-22T18:00:53.179Z,18.10
2018-07-22T18:03:29.037Z,18.00
2018-07-22T18:05:57.224Z,18.00
2018-07-22T18:08:25.364Z,17.90
2018-07-22T18:10:54.178Z,17.90
2018-07-22T18:13:22.340Z,17.80
2018-07-22T18:15:50.552Z,17.80
2018-07-22T18:18:18.698Z,17.80
2018-07-22T18:20:47.688Z,17.90
2018-07-22T18:23:15.831Z,17.80
2018-07-22T18:25:44.849Z,17.70
2018-07-22T18:28:13.601Z,17.70
2018-07-22T18:33:47.750Z,17.80
2018-07-22T18:36:15.890Z,17.90
2018-07-22T18:38:44.070Z,18.00
2018-07-22T18:41:12.230Z,17.90
2018-07-22T18:43:40.360Z,17.90
2018-07-22T18:46:08.494Z,17.70
2018-07-22T18:48:36.745Z,17.60
2018-07-22T18:51:04.749Z,17.40
2018-07-22T18:53:32.869Z,17.20
2018-07-22T18:56:01.013Z,17.00
2018-07-22T18:58:29.124Z,16.90
2018-07-22T19:00:57.260Z,16.80
2018-07-22T19:03:25.365Z,16.60
2018-07-22T19:05:56.806Z,16.60
2018-07-22T19:08:24.933Z,16.50
2018-07-22T19:10:53.149Z,16.40
2018-07-22T19:13:21.311Z,16.20
2018-07-22T19:15:50.464Z,16.10
2018-07-22T19:18:37.197Z,15.90
2018-07-22T19:21:08.697Z,15.80
2018-07-22T19:23:40.436Z,15.70
2018-07-22T19:26:08.605Z,15.60
2018-07-22T19:28:36.761Z,15.50
2018-07-22T19:31:04.910Z,15.40
2018-07-22T19:33:33.051Z,15.40
2018-07-22T19:36:01.213Z,15.30
2018-07-22T19:38:29.348Z,15.30
2018-07-22T19:40:57.545Z,15.30
2018-07-22T19:43:25.679Z,15.20
2018-07-22T19:45:53.833Z,15.10
2018-07-22T19:48:21.997Z,15.00
2018-07-22T19:50:53.954Z,14.90
2018-07-22T19:53:23.100Z,14.90
2018-07-22T19:55:51.562Z,14.80
2018-07-22T19:58:19.725Z,14.80
2018-07-22T20:00:47.898Z,14.80
2018-07-22T20:03:16.071Z,14.70
2018-07-22T20:05:44.253Z,14.60
2018-07-22T20:08:12.405Z,14.50
2018-07-22T20:19:33.626Z,14.40
2018-07-22T20:22:09.936Z,14.50
2018-07-22T20:24:50.283Z,14.50
2018-07-22T20:27:40.889Z,14.50
2018-07-22T20:30:09.092Z,14.60
2018-07-22T20:32:37.241Z,14.60
2018-07-22T20:35:05.485Z,14.60
2018-07-22T20:37:33.662Z,14.60
2018-07-22T20:40:01.818Z,14.60
2018-07-22T20:42:29.977Z,14.50
2018-07-22T20:44:58.258Z,14.50
2018-07-22T20:47:26.423Z,14.40
2018-07-22T20:49:54.572Z,14.40
2018-07-22T20:52:22.727Z,14.30
2018-07-22T20:54:50.857Z,14.20
2018-07-22T20:57:19.013Z,14.10
2018-07-22T20:59:47.152Z,14.00
2018-07-22T21:02:15.353Z,14.00
2018-07-22T21:04:43.493Z,13.90
2018-07-22T21:07:11.822Z,13.80
2018-07-22T21:09:39.992Z,13.80
2018-07-22T21:12:53.295Z,13.80
2018-07-22T21:15:21.494Z,13.80
2018-07-22T21:17:50.607Z,13.70
2018-07-22T21:20:19.758Z,13.60
2018-07-22T21:22:47.933Z,13.50
2018-07-22T21:25:16.509Z,13.50
2018-07-22T21:27:44.837Z,13.40
2018-07-22T21:30:13.525Z,13.40
2018-07-22T21:32:41.804Z,13.40
2018-07-22T21:35:10.051Z,13.40
2018-07-22T21:37:38.380Z,13.40
2018-07-22T21:40:06.656Z,13.50
2018-07-22T21:42:34.872Z,13.50
2018-07-22T21:45:03.877Z,13.50
2018-07-22T21:47:32.026Z,13.60
2018-07-22T21:50:00.185Z,13.50
2018-07-22T21:52:28.385Z,13.50
2018-07-22T21:54:56.572Z,13.40
2018-07-22T21:57:24.794Z,13.30
2018-07-22T21:59:52.950Z,13.30
2018-07-22T22:02:21.111Z,13.10
2018-07-22T22:04:49.281Z,13.10
2018-07-22T22:07:17.443Z,13.10
2018-07-22T22:09:45.589Z,13.10
2018-07-22T22:12:13.736Z,13.10
2018-07-22T22:14:41.882Z,13.20
2018-07-22T22:17:10.065Z,13.20
2018-07-22T22:19:38.179Z,13.10
2018-07-22T22:22:06.381Z,13.10
2018-07-22T22:24:34.621Z,13.10
2018-07-22T22:27:02.743Z,13.20
2018-07-22T22:29:30.937Z,13.10
2018-07-22T22:31:59.109Z,13.00
2018-07-22T22:34:27.280Z,12.90
2018-07-22T22:36:56.057Z,12.90
2018-07-22T22:39:24.203Z,12.80
2018-07-22T22:41:52.324Z,12.80
2018-07-22T22:44:20.578Z,12.80
2018-07-22T22:46:48.748Z,12.80
2018-07-22T22:49:16.896Z,12.80
2018-07-22T22:51:46.034Z,12.80
2018-07-22T22:54:14.237Z,12.80
2018-07-22T22:56:42.433Z,12.80
2018-07-22T22:59:16.974Z,12.90
2018-07-22T23:01:45.437Z,12.90
2018-07-22T23:04:13.717Z,12.80
2018-07-22T23:06:41.886Z,12.80
2018-07-22T23:09:11.850Z,13.20
2018-07-22T23:11:40.292Z,12.60
2018-07-22T23:14:11.918Z,12.70
2018-07-22T23:16:40.546Z,12.60
2018-07-22T23:19:08.823Z,12.60
2018-07-22T23:21:37.094Z,12.60
2018-07-22T23:24:05.289Z,12.50
2018-07-22T23:26:33.589Z,12.50
2018-07-22T23:29:01.929Z,12.60
2018-07-22T23:31:30.097Z,12.50
2018-07-22T23:33:58.257Z,12.40
2018-07-22T23:36:26.471Z,12.50
2018-07-22T23:38:54.662Z,12.50
2018-07-22T23:41:22.849Z,12.50
2018-07-22T23:43:51.030Z,12.50
2018-07-22T23:46:19.250Z,12.50
2018-07-22T23:48:47.429Z,12.50
2018-07-22T23:51:15.640Z,12.50
2018-07-22T23:53:43.826Z,12.40
2018-07-22T23:56:11.970Z,12.70
2018-07-22T23:58:40.180Z,12.40
